»·PEaware :: N56694 L52-KSBP

N56694 :: L52-KSBP

FLIGHT INFORMATION

Flight Status: Arrived
Operator: Privately registered:
United States
More flights under this callsign
Pilot: Michael M. (12217)
Aircraft: CESSNA 172 SKYHAWK
(C172)
More flights by this aircraft type
Origin: L52 Oceano Co
United States
Destination: KSBP San Luis Co Regl
United States
More flights between these airports :: More routes between these airports
Route: DIRECT
File this flight plan on PilotEdge
Remarks: 1ST TIME ON PILOT EDGE SAYS VOICE DISABLED
Altitude:
(Current/Filed)
4,500ft
Speed:
(Current/Filed)
115kts
Departed: 19-Aug-16 08:21 PM
Arrived: 19-Aug-16 08:57 PM
Distance/Time
Traveled:
8nm/0:36
Distance/Time
To Go:
Arrived

Flight Plot

Page will automatically refresh every two minutes.


Map Options




Map Legend


Flown Route
Filed Route
Departure Airport
Arrival Airport
Navaid (VOR, NDB)
Fix

Horizontal Profiles

Position Reports

Time Latitude Longitude Heading Altitude Ground
Speed
19-Aug-16 19:53 35.103567 -120.624835 32 13ft 0kts
19-Aug-16 19:54 35.103567 -120.624835 32 13ft 0kts
19-Aug-16 19:55 35.103567 -120.624835 32 13ft 0kts
19-Aug-16 19:56 35.103567 -120.624835 32 13ft 0kts
19-Aug-16 19:57 35.103567 -120.624835 32 13ft 0kts
19-Aug-16 19:58 35.103567 -120.624835 32 13ft 0kts
19-Aug-16 19:59 35.103567 -120.624835 32 13ft 0kts
19-Aug-16 20:00 35.103567 -120.624835 32 13ft 0kts
19-Aug-16 20:01 35.103567 -120.624835 32 13ft 0kts
19-Aug-16 20:02 35.103567 -120.624835 32 13ft 0kts
19-Aug-16 20:03 35.103567 -120.624835 32 13ft 0kts
19-Aug-16 20:04 35.103567 -120.624835 32 13ft 0kts
19-Aug-16 20:05 35.103567 -120.624835 32 13ft 0kts
19-Aug-16 20:06 35.103567 -120.624835 32 13ft 0kts
19-Aug-16 20:07 35.103567 -120.624835 32 13ft 0kts
19-Aug-16 20:08 35.103749 -120.625404 188 13ft 18kts
19-Aug-16 20:09 35.102996 -120.624108 123 13ft 28kts
19-Aug-16 20:10 35.101718 -120.622109 191 16ft 10kts
19-Aug-16 20:11 35.101184 -120.621769 128 16ft 33kts
19-Aug-16 20:12 35.099910 -120.619517 136 16ft 22kts
19-Aug-16 20:13 35.099762 -120.619240 304 16ft 0kts
19-Aug-16 20:14 35.099762 -120.619240 304 16ft 0kts
19-Aug-16 20:15 35.099762 -120.619240 304 16ft 0kts
19-Aug-16 20:16 35.099772 -120.619257 305 16ft 1kts
19-Aug-16 20:17 35.099967 -120.619573 307 16ft 9kts
19-Aug-16 20:18 35.100419 -120.620249 309 16ft 14kts
19-Aug-16 20:19 35.100816 -120.620848 266 16ft 8kts
19-Aug-16 20:20 35.102149 -120.623572 302 16ft 61kts
19-Aug-16 20:21 35.104126 -120.628307 286 309ft 56kts
19-Aug-16 20:22 35.105327 -120.634114 285 542ft 65kts
19-Aug-16 20:23 35.106271 -120.640749 277 811ft 69kts
19-Aug-16 20:24 35.106162 -120.648341 278 1138ft 70kts
19-Aug-16 20:25 35.107382 -120.651896 311 1279ft 71kts
19-Aug-16 20:26 35.110292 -120.653406 358 1399ft 78kts
19-Aug-16 20:27 35.115196 -120.651228 12 1612ft 68kts
19-Aug-16 20:27 35.119551 -120.649733 7 1552ft 82kts
19-Aug-16 20:28 35.124677 -120.648415 5 1638ft 78kts
19-Aug-16 20:29 35.127851 -120.647665 5 1644ft 81kts
19-Aug-16 20:30 35.133065 -120.646386 4 1751ft 76kts
19-Aug-16 20:31 35.138564 -120.645375 358 2014ft 72kts
19-Aug-16 20:33 35.144013 -120.645307 352 2165ft 78kts
19-Aug-16 20:34 35.149500 -120.645697 351 2363ft 75kts
19-Aug-16 20:35 35.154845 -120.645418 14 2495ft 84kts
19-Aug-16 20:36 35.159788 -120.641710 32 2679ft 84kts
19-Aug-16 20:37 35.164267 -120.636562 43 2838ft 87kts
19-Aug-16 20:38 35.168183 -120.630233 49 2810ft 93kts
19-Aug-16 20:39 35.171985 -120.624070 43 2801ft 91kts
19-Aug-16 20:40 35.176552 -120.618067 40 2821ft 94kts
19-Aug-16 20:41 35.180342 -120.613449 38 2868ft 92kts
19-Aug-16 20:42 35.185233 -120.607823 37 2883ft 90kts
19-Aug-16 20:43 35.189946 -120.602837 34 2578ft 100kts
19-Aug-16 20:44 35.195685 -120.598341 25 2259ft 103kts
19-Aug-16 20:45 35.201574 -120.594125 26 1998ft 101kts
19-Aug-16 20:46 35.207417 -120.589694 20 1704ft 101kts
19-Aug-16 20:47 35.213381 -120.590982 305 1478ft 90kts
19-Aug-16 20:48 35.214876 -120.598062 283 1393ft 94kts
19-Aug-16 20:49 35.216821 -120.604943 299 1331ft 93kts
19-Aug-16 20:50 35.220045 -120.611757 302 1213ft 97kts
19-Aug-16 20:51 35.223473 -120.617838 309 938ft 98kts
19-Aug-16 20:52 35.227729 -120.624116 305 676ft 92kts
19-Aug-16 20:53 35.230988 -120.630264 305 473ft 84kts
19-Aug-16 20:54 35.234214 -120.635582 306 236ft 74kts
19-Aug-16 20:55 35.236657 -120.639860 307 200ft 49kts
19-Aug-16 20:56 35.237834 -120.642273 270 184ft 10kts
19-Aug-16 20:57 35.237798 -120.642687 238 183ft 0kts
19-Aug-16 20:58 35.237798 -120.642687 238 183ft 0kts
19-Aug-16 20:59 35.237798 -120.642687 238 183ft 0kts

Navigation Log

Ident Type
Flight plan parsing failed, navigation log unavailable